Ringgold, Texas
Current Conditions -  °F | °C
As of 9:55 AM on Thursday 27 Nov 2014 (Local Time) from K0F2 Reporting Station
Clear Clear  
Wind Chill: 45°   Ceiling: Unl
Heat Index: 45°   Visibility: 10mi
Dew Point: 25°   Wind: 3mph
Humidity: 45%   Direction: 100°E
Pressure: 30.54"   Gusts: NA
Location:  33.82°N, 97.94°W
Report Text: K0F2 271555Z AUTO 10003KT 10SM CLR 07/M04 A3054 RMK AO2 T00711041
Loading
Personal Weather Stations






























Interactive Weather Map New forecast layout! Learn more

10-Day Weather Forecast

Advertisements
Track Severe Weather on mobile